createdAt,value
2022-10-31T00:03:46.250Z,0.00
2022-10-31T00:08:46.137Z,0.00
2022-10-31T00:13:46.311Z,0.00
2022-10-31T00:18:46.058Z,0.00
2022-10-31T00:23:46.093Z,0.00
2022-10-31T00:28:45.931Z,0.00
2022-10-31T00:33:45.874Z,0.00
2022-10-31T00:38:45.776Z,0.00
2022-10-31T00:43:45.745Z,0.00
2022-10-31T00:48:45.635Z,0.00
2022-10-31T00:53:45.549Z,0.00
2022-10-31T00:58:45.485Z,0.00
2022-10-31T01:03:45.448Z,0.00
2022-10-31T01:08:45.372Z,0.00
2022-10-31T01:13:45.330Z,0.00
2022-10-31T01:18:45.247Z,0.00
2022-10-31T01:23:45.186Z,0.00
2022-10-31T01:28:45.216Z,0.00
2022-10-31T01:33:45.027Z,0.00
2022-10-31T01:38:44.987Z,0.00
2022-10-31T01:43:44.918Z,0.00
2022-10-31T01:48:44.876Z,0.00
2022-10-31T01:53:44.763Z,0.00
2022-10-31T01:58:44.749Z,0.00
2022-10-31T02:03:44.666Z,0.00
2022-10-31T02:08:44.627Z,0.00
2022-10-31T02:13:44.526Z,0.00
2022-10-31T02:18:44.467Z,0.00
2022-10-31T02:23:47.811Z,0.00
2022-10-31T02:28:45.453Z,0.00
2022-10-31T02:33:44.244Z,0.00
2022-10-31T02:38:44.195Z,0.00
2022-10-31T02:43:44.130Z,0.00
2022-10-31T02:48:44.086Z,0.00
2022-10-31T02:53:43.991Z,0.00
2022-10-31T02:58:43.952Z,0.00
2022-10-31T03:03:43.856Z,0.00
2022-10-31T03:08:43.792Z,0.00
2022-10-31T03:13:43.741Z,0.00
2022-10-31T03:18:43.669Z,0.00
2022-10-31T03:23:43.617Z,0.00
2022-10-31T03:28:43.542Z,0.00
2022-10-31T03:33:43.499Z,0.00
2022-10-31T03:38:43.405Z,0.00
2022-10-31T03:43:43.452Z,0.00
2022-10-31T03:48:43.401Z,0.00
2022-10-31T03:53:43.255Z,0.00
2022-10-31T03:58:43.294Z,0.00
2022-10-31T04:03:43.146Z,0.00
2022-10-31T04:08:43.053Z,0.00
2022-10-31T04:13:42.947Z,0.00
2022-10-31T04:18:42.905Z,0.00
2022-10-31T04:23:42.791Z,0.00
2022-10-31T04:28:42.727Z,0.00
2022-10-31T04:33:42.706Z,0.00
2022-10-31T04:38:42.629Z,0.00
2022-10-31T04:43:42.520Z,0.00
2022-10-31T04:48:42.449Z,0.00
2022-10-31T04:53:42.411Z,0.00
2022-10-31T04:58:42.324Z,0.00
2022-10-31T05:03:42.286Z,0.00
2022-10-31T05:08:42.223Z,0.00
2022-10-31T05:13:42.130Z,4.00
2022-10-31T05:18:42.100Z,4.00
2022-10-31T05:23:45.934Z,8.00
2022-10-31T05:28:42.957Z,16.00
2022-10-31T05:33:41.834Z,44.00
2022-10-31T05:38:41.766Z,88.00
2022-10-31T05:43:41.707Z,168.00
2022-10-31T05:48:41.643Z,284.00
2022-10-31T05:53:41.585Z,452.00
2022-10-31T05:58:41.495Z,672.00
2022-10-31T06:03:41.463Z,964.00
2022-10-31T06:08:41.365Z,1352.00
2022-10-31T06:13:41.307Z,1824.00
2022-10-31T06:18:41.267Z,2368.00
2022-10-31T06:23:41.192Z,2976.00
2022-10-31T06:28:41.175Z,3704.00
2022-10-31T06:33:41.096Z,4460.00
2022-10-31T06:38:41.068Z,8620.00
2022-10-31T06:43:40.972Z,21056.00
2022-10-31T06:48:40.895Z,22336.00
2022-10-31T06:53:40.777Z,28832.00
2022-10-31T06:58:40.715Z,35648.00
2022-10-31T07:03:40.675Z,36192.00
2022-10-31T07:08:40.613Z,27264.00
2022-10-31T07:13:40.506Z,21472.00
2022-10-31T07:18:40.475Z,45120.00
2022-10-31T07:23:40.397Z,46208.00
2022-10-31T07:28:40.329Z,49536.00
2022-10-31T07:33:40.227Z,48960.00
2022-10-31T07:38:40.196Z,51904.00
2022-10-31T07:43:40.149Z,51456.00
2022-10-31T07:48:40.047Z,49152.00
2022-10-31T07:53:40.144Z,45120.00
2022-10-31T07:58:39.912Z,37856.00
2022-10-31T08:03:39.834Z,10836.00
2022-10-31T08:08:39.772Z,9928.00
2022-10-31T08:13:39.721Z,9472.00
2022-10-31T08:18:39.692Z,8176.00
2022-10-31T08:23:39.655Z,8008.00
2022-10-31T08:28:39.503Z,7856.00
2022-10-31T08:33:39.482Z,7772.00
2022-10-31T08:38:39.392Z,7640.00
2022-10-31T08:43:39.314Z,7520.00
2022-10-31T08:48:39.255Z,7380.00
2022-10-31T08:53:39.244Z,7284.00
2022-10-31T08:58:40.337Z,7156.00
2022-10-31T09:03:39.044Z,7044.00
2022-10-31T09:08:38.988Z,6952.00
2022-10-31T09:13:41.393Z,6816.00
2022-10-31T09:18:38.878Z,6800.00
2022-10-31T09:23:38.790Z,6764.00
2022-10-31T09:28:38.795Z,6712.00
2022-10-31T09:33:38.708Z,6612.00
2022-10-31T09:38:38.615Z,6440.00
2022-10-31T09:43:38.556Z,6460.00
2022-10-31T09:48:38.481Z,6432.00
2022-10-31T09:53:38.414Z,6412.00
2022-10-31T09:58:39.088Z,6408.00
2022-10-31T10:03:38.329Z,6368.00
2022-10-31T10:08:38.321Z,6108.00
2022-10-31T10:13:38.125Z,6296.00
2022-10-31T10:18:38.071Z,6256.00
2022-10-31T10:23:38.053Z,6132.00
2022-10-31T10:28:37.932Z,6108.00
2022-10-31T10:33:37.870Z,6072.00
2022-10-31T10:38:37.806Z,6024.00
2022-10-31T10:43:37.818Z,5924.00
2022-10-31T10:48:37.749Z,5840.00
2022-10-31T10:53:37.676Z,5676.00
2022-10-31T10:58:37.664Z,5624.00
2022-10-31T11:03:37.572Z,5624.00
2022-10-31T11:08:37.468Z,5632.00
2022-10-31T11:13:37.360Z,5612.00
2022-10-31T11:18:37.358Z,5448.00
2022-10-31T11:23:37.223Z,5408.00
2022-10-31T11:28:37.154Z,5352.00
2022-10-31T11:33:37.059Z,5212.00
2022-10-31T11:38:37.025Z,5164.00
2022-10-31T11:43:36.931Z,5096.00
2022-10-31T11:48:36.895Z,5140.00
2022-10-31T11:53:37.103Z,4940.00
2022-10-31T11:58:36.806Z,4948.00
2022-10-31T12:03:36.679Z,4788.00
2022-10-31T12:08:36.624Z,4812.00
2022-10-31T12:13:36.567Z,4768.00
2022-10-31T12:18:36.485Z,4720.00
2022-10-31T12:23:36.416Z,4772.00
2022-10-31T12:28:39.977Z,4552.00
2022-10-31T12:33:37.380Z,4932.00
2022-10-31T12:38:36.218Z,4840.00
2022-10-31T12:43:36.193Z,4804.00
2022-10-31T12:48:36.131Z,4868.00
2022-10-31T12:53:36.030Z,4856.00
2022-10-31T12:58:35.984Z,4756.00
2022-10-31T13:03:35.881Z,4400.00
2022-10-31T13:08:35.909Z,4364.00
2022-10-31T13:13:35.745Z,4336.00
2022-10-31T13:18:35.702Z,4284.00
2022-10-31T13:23:51.944Z,4324.00
2022-10-31T13:28:36.607Z,4160.00
2022-10-31T13:33:35.495Z,3996.00
2022-10-31T13:38:35.437Z,4060.00
2022-10-31T13:43:35.357Z,4076.00
2022-10-31T13:48:35.331Z,4000.00
2022-10-31T13:53:35.228Z,3860.00
2022-10-31T13:58:35.169Z,3704.00
2022-10-31T14:03:58.391Z,3668.00
2022-10-31T14:08:36.046Z,3616.00
2022-10-31T14:13:34.961Z,3500.00
2022-10-31T14:18:34.901Z,3272.00
2022-10-31T14:23:34.850Z,3092.00
2022-10-31T14:28:34.772Z,2816.00
2022-10-31T14:33:34.700Z,2604.00
2022-10-31T14:38:34.651Z,2356.00
2022-10-31T14:43:34.594Z,2084.00
2022-10-31T14:48:34.549Z,1812.00
2022-10-31T14:53:34.445Z,1548.00
2022-10-31T15:03:34.335Z,1124.00
2022-10-31T15:08:34.266Z,964.00
2022-10-31T15:13:34.253Z,812.00
2022-10-31T15:18:34.146Z,664.00
2022-10-31T15:23:34.077Z,524.00
2022-10-31T15:28:34.000Z,396.00
2022-10-31T15:33:38.711Z,284.00
2022-10-31T15:38:34.848Z,188.00
2022-10-31T15:43:33.778Z,120.00
2022-10-31T15:48:33.750Z,68.00
2022-10-31T15:53:33.632Z,32.00
2022-10-31T15:58:33.609Z,12.00
2022-10-31T16:03:33.507Z,8.00
2022-10-31T16:08:33.474Z,4.00
2022-10-31T16:13:33.400Z,0.00
2022-10-31T16:18:33.312Z,0.00
2022-10-31T16:23:33.462Z,0.00
2022-10-31T16:28:35.635Z,0.00
2022-10-31T16:33:34.155Z,0.00
2022-10-31T16:38:33.122Z,0.00
2022-10-31T16:43:33.327Z,0.00
2022-10-31T16:48:33.052Z,0.00
2022-10-31T16:53:32.917Z,0.00
2022-10-31T16:58:32.807Z,0.00
2022-10-31T17:03:32.833Z,0.00
2022-10-31T17:08:32.692Z,0.00
2022-10-31T17:13:32.835Z,0.00
2022-10-31T17:18:32.580Z,0.00
2022-10-31T17:23:32.696Z,0.00
2022-10-31T17:28:32.663Z,0.00
2022-10-31T17:33:32.701Z,0.00
2022-10-31T17:38:32.543Z,0.00
2022-10-31T17:43:32.191Z,0.00
2022-10-31T17:48:32.137Z,0.00
2022-10-31T17:53:32.287Z,0.00
2022-10-31T17:58:32.070Z,0.00
2022-10-31T18:03:31.959Z,0.00
2022-10-31T18:08:31.851Z,0.00
2022-10-31T18:13:31.825Z,0.00
2022-10-31T18:18:31.800Z,0.00
2022-10-31T18:23:31.638Z,0.00
2022-10-31T18:28:31.578Z,0.00
2022-10-31T18:33:31.505Z,0.00
2022-10-31T18:38:31.466Z,0.00
2022-10-31T18:43:31.373Z,0.00
2022-10-31T18:48:31.355Z,0.00
2022-10-31T18:53:31.517Z,0.00
2022-10-31T18:58:31.174Z,0.00
2022-10-31T19:03:31.281Z,0.00
2022-10-31T19:08:31.037Z,0.00
2022-10-31T19:13:31.036Z,0.00
2022-10-31T19:18:30.893Z,0.00
2022-10-31T19:23:30.900Z,0.00
2022-10-31T19:28:30.805Z,0.00
2022-10-31T19:33:34.979Z,0.00
2022-10-31T19:38:31.646Z,0.00
2022-10-31T19:43:30.708Z,0.00
2022-10-31T19:48:30.523Z,0.00
2022-10-31T19:53:30.487Z,0.00
2022-10-31T19:58:30.386Z,0.00
2022-10-31T20:03:30.323Z,0.00
2022-10-31T20:08:30.257Z,0.00
2022-10-31T20:13:30.203Z,0.00
2022-10-31T20:18:30.167Z,0.00
2022-10-31T20:23:30.122Z,0.00
2022-10-31T20:28:29.984Z,0.00
2022-10-31T20:33:29.923Z,0.00
2022-10-31T20:38:29.927Z,0.00
2022-10-31T20:43:30.246Z,0.00
2022-10-31T20:48:29.777Z,0.00
2022-10-31T20:53:29.728Z,0.00
2022-10-31T20:58:29.634Z,0.00
2022-10-31T21:03:29.529Z,0.00
2022-10-31T21:08:29.504Z,0.00
2022-10-31T21:13:29.495Z,0.00
2022-10-31T21:18:29.349Z,0.00
2022-10-31T21:23:29.288Z,0.00
2022-10-31T21:28:29.245Z,0.00
2022-10-31T21:33:29.177Z,0.00
2022-10-31T21:38:29.116Z,0.00
2022-10-31T21:43:29.071Z,0.00
2022-10-31T21:48:28.955Z,0.00
2022-10-31T21:53:28.897Z,0.00
2022-10-31T21:58:28.810Z,0.00
2022-10-31T22:03:28.798Z,0.00
2022-10-31T22:08:28.677Z,0.00
2022-10-31T22:13:28.655Z,0.00
2022-10-31T22:18:28.663Z,0.00
2022-10-31T22:23:28.515Z,0.00
2022-10-31T22:28:28.424Z,0.00
2022-10-31T22:33:28.339Z,0.00
2022-10-31T22:38:28.378Z,0.00
2022-10-31T22:43:28.221Z,0.00
2022-10-31T22:48:28.149Z,0.00
2022-10-31T22:53:28.084Z,0.00
2022-10-31T22:58:28.009Z,0.00
2022-10-31T23:03:27.948Z,0.00
2022-10-31T23:08:27.886Z,0.00
2022-10-31T23:13:27.870Z,0.00
2022-10-31T23:18:48.531Z,0.00
2022-10-31T23:23:28.692Z,0.00
2022-10-31T23:28:27.641Z,0.00
2022-10-31T23:33:31.321Z,0.00
2022-10-31T23:38:27.513Z,0.00
2022-10-31T23:43:27.462Z,0.00
2022-10-31T23:48:27.357Z,0.00
2022-10-31T23:53:27.389Z,0.00
2022-10-31T23:58:27.231Z,0.00
